ADDS METAR Data INFO
IDs: Format: Raw Decoded Include TAF

Data at: 0204 UTC 21 Apr 2018

KAXH 210155Z AUTO 10005KT 10SM CLR 16/13 A3011 RMK AO2 T01630125
KAXH 210135Z AUTO 10006KT 10SM CLR 16/13 A3011 RMK AO2 T01620125
KAXH 210115Z AUTO 10005KT 10SM CLR 16/12 A3012 RMK AO2 T01630124
KAXH 210055Z AUTO 11007KT 10SM CLR 17/12 A3012 RMK AO2 T01660123
KAXH 210035Z AUTO 11006KT 10SM SCT028 17/12 A3012 RMK AO2 T01680123
KAXH 210015Z AUTO 09007KT 10SM SCT030 17/12 A3012 RMK AO2 T01710124
KAXH 202355Z AUTO 09006KT 10SM BKN030 18/12 A3013 RMK AO2 T01750123 10199 20170
KAXH 202335Z AUTO 10007KT 10SM SCT028 18/12 A3014 RMK AO2 T01770122
KAXH 202315Z AUTO 10007KT 10SM SCT030 18/12 A3014 RMK AO2 T01800120
KAXH 202255Z AUTO 10007KT 10SM SCT029 18/12 A3014 RMK AO2 LTG DSNT N T01830119
KAXH 202235Z AUTO 10008KT 10SM SCT029 19/12 A3014 RMK AO2 T01890122
KAXH 202215Z AUTO 09009KT 10SM SCT029 19/12 A3014 RMK AO2 T01910120
KAXH 202155Z AUTO 11007G15KT 10SM CLR 19/12 A3015 RMK AO2 T01900117
KAXH 202135Z AUTO 10010G15KT 10SM CLR 19/12 A3014 RMK AO2 T01900115
KAXH 202115Z AUTO 11008G14KT 10SM CLR 19/11 A3014 RMK AO2 T01930114
KAXH 202055Z AUTO 11011G15KT 10SM CLR 19/11 A3015 RMK AO2 T01860108
KAXH 202035Z AUTO 10008KT 10SM CLR 19/11 A3017 RMK AO2 T01890106
KAXH 202015Z AUTO 11008G14KT 10SM CLR 19/10 A3017 RMK AO2 T01850102
KAXH 201955Z AUTO 12009KT 10SM CLR 19/11 A3018 RMK AO2 T01900105
KAXH 201935Z AUTO 11007KT 10SM CLR 19/10 A3019 RMK AO2 T01870104
KAXH 201915Z AUTO 12006KT 10SM CLR 19/10 A3021 RMK AO2 T01850100
KAXH 201855Z AUTO 10007KT 7SM CLR 19/10 A3022 RMK AO2 T01850097
KAXH 201835Z AUTO 11006KT 7SM CLR 18/09 A3023 RMK AO2 T01820093
KAXH 201815Z AUTO 08008KT 7SM CLR 17/08 A3023 RMK AO2 T01700082
KAXH 201755Z AUTO 07008KT 10SM CLR 17/08 A3025 RMK AO2 T01700083 10170 20120
KAXH 201735Z AUTO 09007KT 10SM CLR 17/08 A3025 RMK AO2 T01650075
KAXH 201715Z AUTO 08008KT 10SM CLR 17/07 A3027 RMK AO2 T01650071
KAXH 201655Z AUTO 11006KT 10SM CLR 16/07 A3028 RMK AO2 T01640073
KAXH 201635Z AUTO 09008KT 10SM CLR 16/07 A3029 RMK AO2 T01640070
KAXH 201615Z AUTO 11008KT 10SM CLR 16/06 A3029 RMK AO2 T01570060
KAXH 201555Z AUTO 10006KT 10SM CLR 15/06 A3028 RMK AO2 T01510057
KAXH 201535Z AUTO 07009KT 10SM CLR 15/06 A3028 RMK AO2 T01490063
KAXH 201515Z AUTO 10010KT 10SM CLR 15/06 A3027 RMK AO2 T01480058
KAXH 201455Z AUTO 09010G14KT 10SM CLR 14/06 A3027 RMK AO2 T01440062
KAXH 201435Z AUTO 09009G15KT 10SM CLR 14/06 A3027 RMK AO2 T01440064
KAXH 201415Z AUTO 08010KT 10SM CLR 15/07 A3027 RMK AO2 T01450069
KAXH 201355Z AUTO 08009KT 10SM CLR 14/07 A3027 RMK AO2 T01410066
KAXH 201335Z AUTO 08009KT 10SM CLR 13/06 A3027 RMK AO2 T01300063
KAXH 201315Z AUTO 07009G14KT 10SM CLR 14/07 A3026 RMK AO2 T01370065
KAXH 201255Z AUTO 08006KT 10SM CLR 13/07 A3027 RMK AO2 T01290067
KAXH 201235Z AUTO 08008KT 10SM CLR 12/07 A3027 RMK AO2 T01200066
KAXH 201215Z AUTO 06007KT 10SM CLR 12/07 A3025 RMK AO2 T01200067
KAXH 201155Z AUTO 06011G14KT 10SM CLR 12/07 A3024 RMK AO2 T01230070 10150 20103
KAXH 201135Z AUTO 07011G16KT 10SM CLR 13/08 A3022 RMK AO2 T01250075
KAXH 201115Z AUTO 07008KT 10SM CLR 13/08 A3024 RMK AO2 T01270081
KAXH 201055Z AUTO 06007KT 10SM CLR 13/09 A3024 RMK AO2 T01310089
KAXH 201035Z AUTO 06006KT 10SM CLR 13/09 A3022 RMK AO2 T01310091
KAXH 201015Z AUTO 05006KT 10SM CLR 13/09 A3021 RMK AO2 T01320091
KAXH 200955Z AUTO 05007KT 10SM CLR 13/09 A3019 RMK AO2 T01320088
KAXH 200935Z AUTO 06007KT 10SM CLR 13/08 A3019 RMK AO2 T01290084
KAXH 200915Z AUTO 06005KT 10SM CLR 12/09 A3020 RMK AO2 T01150085
KAXH 200855Z AUTO 00000KT 10SM CLR 11/09 A3020 RMK AO2 T01130085
KAXH 200835Z AUTO 00000KT 10SM CLR 12/08 A3020 RMK AO2 T01150082
KAXH 200815Z AUTO 00000KT 10SM CLR 10/08 A3019 RMK AO2 T01030081
KAXH 200755Z AUTO 00000KT 10SM CLR 12/09 A3021 RMK AO2 T01150088
KAXH 200735Z AUTO 00000KT 10SM CLR 13/08 A3021 RMK AO2 T01280076
KAXH 200715Z AUTO 00000KT 10SM CLR 13/08 A3021 RMK AO2 T01270079
KAXH 200655Z AUTO 04003KT 10SM CLR 13/08 A3020 RMK AO2 T01270079
KAXH 200635Z AUTO 00000KT 10SM CLR 13/08 A3021 RMK AO2 T01300077
KAXH 200615Z AUTO 00000KT 10SM CLR 14/08 A3022 RMK AO2 T01370078
KAXH 200555Z AUTO 04003KT 10SM CLR 15/07 A3022 RMK AO2 T01500074 10228 20147
KAXH 200535Z AUTO 07003KT 10SM CLR 15/08 A3022 RMK AO2 T01510075
KAXH 200515Z AUTO 04003KT 10SM CLR 15/08 A3022 RMK AO2 T01530078
KAXH 200455Z AUTO 00000KT 10SM CLR 16/08 A3022 RMK AO2 T01610076
KAXH 200435Z AUTO 00000KT 10SM CLR 16/08 A3022 RMK AO2 T01610075
KAXH 200415Z AUTO 05004KT 10SM CLR 16/08 A3022 RMK AO2 T01620075
KAXH 200355Z AUTO 04003KT 10SM CLR 17/07 A3023 RMK AO2 T01660072
KAXH 200335Z AUTO 04003KT 10SM CLR 17/07 A3022 RMK AO2 T01680072
KAXH 200315Z AUTO 03003KT 10SM CLR 17/07 A3022 RMK AO2 T01680073
KAXH 200255Z AUTO 00000KT 10SM CLR 17/08 A3022 RMK AO2 T01680075
KAXH 200235Z AUTO 00000KT 10SM CLR 17/07 A3022 RMK AO2 T01700072
KAXH 200215Z AUTO 03003KT 10SM CLR 18/07 A3021 RMK AO2 T01760071
KAXH 200155Z AUTO 00000KT 10SM CLR 18/07 A3021 RMK AO2 T01830069
KAXH 200135Z AUTO 00000KT 10SM CLR 19/07 A3020 RMK AO2 T01850068
KAXH 200115Z AUTO 05003KT 10SM CLR 19/06 A3019 RMK AO2 T01910062
KAXH 200055Z AUTO 06004KT 10SM CLR 20/06 A3019 RMK AO2 T01960063
KAXH 200035Z AUTO 05004KT 10SM CLR 21/06 A3019 RMK AO2 T02060063
KAXH 200015Z AUTO 04004KT 10SM CLR 22/06 A3019 RMK AO2 T02230058
KAXH 192355Z AUTO 01005KT 10SM CLR 23/04 A3019 RMK AO2 T02280044 10252 20225
KAXH 192335Z AUTO 36005KT 10SM CLR 24/04 A3019 RMK AO2 T02350043
KAXH 192315Z AUTO 02004KT 10SM CLR 24/05 A3019 RMK AO2 T02390048
KAXH 192255Z AUTO 03006KT 10SM CLR 24/05 A3019 RMK AO2 T02430050
KAXH 192235Z AUTO 36006KT 10SM CLR 25/05 A3019 RMK AO2 T02460048
KAXH 192215Z AUTO 02006KT 10SM CLR 25/05 A3019 RMK AO2 T02470045
KAXH 192155Z AUTO 01005KT 10SM CLR 25/05 A3019 RMK AO2 T02480052
KAXH 192135Z AUTO 01006KT 10SM CLR 25/05 A3019 RMK AO2 T02500048
KAXH 192115Z AUTO 34005KT 10SM CLR 25/05 A3020 RMK AO2 T02510053
KAXH 192055Z AUTO 34005KT 10SM CLR 25/05 A3021 RMK AO2 T02500045
KAXH 192035Z AUTO 04009G15KT 10SM CLR 25/04 A3021 RMK AO2 T02500037
KAXH 192015Z AUTO 03007KT 10SM CLR 25/04 A3022 RMK AO2 T02450036
KAXH 191955Z AUTO 36006G14KT 10SM CLR 25/04 A3023 RMK AO2 T02450042
KAXH 191935Z AUTO 01009G16KT 330V060 10SM CLR 25/04 A3024 RMK AO2 T02460039
KAXH 191915Z AUTO 04009KT 10SM CLR 24/04 A3024 RMK AO2 T02440041
KAXH 191855Z AUTO 01010G15KT 10SM CLR 24/03 A3025 RMK AO2 T02390034
KAXH 191835Z AUTO 02012KT 10SM CLR 24/04 A3026 RMK AO2 T02410035
KAXH 191815Z AUTO 03011G15KT 10SM CLR 24/03 A3027 RMK AO2 T02380033
KAXH 191755Z AUTO 01007KT 10SM CLR 24/04 A3027 RMK AO2 T02350035 10235 20180
KAXH 191735Z AUTO 02006G15KT 10SM CLR 23/03 A3028 RMK AO2 T02330031
KAXH 191715Z AUTO 04010KT 10SM CLR 23/03 A3028 RMK AO2 T02310033
KAXH 191655Z AUTO 03010KT 10SM CLR 23/04 A3028 RMK AO2 T02270035
KAXH 191635Z AUTO 03012KT 10SM CLR 22/02 A3028 RMK AO2 T02200023
KAXH 191615Z AUTO 02012G17KT 10SM CLR 21/02 A3028 RMK AO2 T02140017
KAXH 191555Z AUTO 04014G20KT 10SM SCT070 21/01 A3028 RMK AO2 T02120014
KAXH 191535Z AUTO 03014G22KT 10SM BKN070 21/02 A3029 RMK AO2 T02050019
KAXH 191515Z AUTO 04016G22KT 10SM OVC070 20/01 A3029 RMK AO2 T01960013
KAXH 191455Z AUTO 04012G15KT 10SM SCT070 OVC080 19/02 A3028 RMK AO2 T01920019
KAXH 191435Z AUTO 03008G20KT 10SM OVC070 19/03 A3028 RMK AO2 T01870030
KAXH 191415Z AUTO 03013G18KT 10SM OVC080 18/03 A3028 RMK AO2 T01820025